sensor_id;sensor_type;location;lat;lon;timestamp;temperature;humidity
47616;DHT22;69146;52.266;7.000;2023-05-16T00:00:31;10.40;99.90
47616;DHT22;69146;52.266;7.000;2023-05-16T00:03:18;10.40;99.90
47616;DHT22;69146;52.266;7.000;2023-05-16T00:06:06;10.60;99.90
47616;DHT22;69146;52.266;7.000;2023-05-16T00:08:53;10.50;99.90
47616;DHT22;69146;52.266;7.000;2023-05-16T00:11:38;10.50;99.90
47616;DHT22;69146;52.266;7.000;2023-05-16T00:14:22;10.50;99.90
47616;DHT22;69146;52.266;7.000;2023-05-16T00:17:09;10.60;99.90
47616;DHT22;69146;52.266;7.000;2023-05-16T00:19:55;10.60;99.90
47616;DHT22;69146;52.266;7.000;2023-05-16T00:22:45;10.70;99.90
47616;DHT22;69146;52.266;7.000;2023-05-16T00:25:29;10.60;99.90
47616;DHT22;69146;52.266;7.000;2023-05-16T00:28:15;10.70;99.90
47616;DHT22;69146;52.266;7.000;2023-05-16T00:31:00;10.70;99.90
47616;DHT22;69146;52.266;7.000;2023-05-16T00:33:44;10.70;99.90
47616;DHT22;69146;52.266;7.000;2023-05-16T00:36:29;10.70;99.90
47616;DHT22;69146;52.266;7.000;2023-05-16T00:39:16;10.70;99.90
47616;DHT22;69146;52.266;7.000;2023-05-16T00:42:00;10.70;99.90
47616;DHT22;69146;52.266;7.000;2023-05-16T00:44:45;10.80;99.90
47616;DHT22;69146;52.266;7.000;2023-05-16T00:47:29;10.70;99.90
47616;DHT22;69146;52.266;7.000;2023-05-16T00:50:14;10.70;99.90
47616;DHT22;69146;52.266;7.000;2023-05-16T00:52:58;10.70;99.90
47616;DHT22;69146;52.266;7.000;2023-05-16T00:55:44;10.70;99.90
47616;DHT22;69146;52.266;7.000;2023-05-16T00:58:29;10.70;99.90
47616;DHT22;69146;52.266;7.000;2023-05-16T01:01:17;10.70;99.90
47616;DHT22;69146;52.266;7.000;2023-05-16T01:04:03;10.60;99.90
47616;DHT22;69146;52.266;7.000;2023-05-16T01:06:47;10.60;99.90
47616;DHT22;69146;52.266;7.000;2023-05-16T01:09:32;10.50;99.90
47616;DHT22;69146;52.266;7.000;2023-05-16T01:12:20;10.40;99.90
47616;DHT22;69146;52.266;7.000;2023-05-16T01:15:06;10.30;99.90
47616;DHT22;69146;52.266;7.000;2023-05-16T01:17:54;10.20;99.90
47616;DHT22;69146;52.266;7.000;2023-05-16T01:20:41;10.20;99.90
47616;DHT22;69146;52.266;7.000;2023-05-16T01:23:32;10.10;99.90
47616;DHT22;69146;52.266;7.000;2023-05-16T01:26:24;10.00;99.90
47616;DHT22;69146;52.266;7.000;2023-05-16T01:29:10;10.00;99.90
47616;DHT22;69146;52.266;7.000;2023-05-16T01:31:54;10.00;99.90
47616;DHT22;69146;52.266;7.000;2023-05-16T01:34:39;9.90;99.90
47616;DHT22;69146;52.266;7.000;2023-05-16T01:37:27;9.80;99.90
47616;DHT22;69146;52.266;7.000;2023-05-16T01:40:14;9.70;99.90
47616;DHT22;69146;52.266;7.000;2023-05-16T01:43:01;9.70;99.90
47616;DHT22;69146;52.266;7.000;2023-05-16T01:45:49;9.70;99.90
47616;DHT22;69146;52.266;7.000;2023-05-16T01:48:36;9.70;99.90
47616;DHT22;69146;52.266;7.000;2023-05-16T01:51:23;9.60;99.90
47616;DHT22;69146;52.266;7.000;2023-05-16T01:54:12;9.70;99.90
47616;DHT22;69146;52.266;7.000;2023-05-16T01:56:57;9.60;99.90
47616;DHT22;69146;52.266;7.000;2023-05-16T01:59:44;9.50;99.90
47616;DHT22;69146;52.266;7.000;2023-05-16T02:02:29;9.40;99.90
47616;DHT22;69146;52.266;7.000;2023-05-16T02:05:14;9.50;99.90
47616;DHT22;69146;52.266;7.000;2023-05-16T02:07:59;9.40;99.90
47616;DHT22;69146;52.266;7.000;2023-05-16T02:10:43;9.30;99.90
47616;DHT22;69146;52.266;7.000;2023-05-16T02:13:28;9.30;99.90
47616;DHT22;69146;52.266;7.000;2023-05-16T02:16:14;9.30;99.90
47616;DHT22;69146;52.266;7.000;2023-05-16T02:18:58;9.20;99.90
47616;DHT22;69146;52.266;7.000;2023-05-16T02:21:43;9.20;99.90
47616;DHT22;69146;52.266;7.000;2023-05-16T02:24:27;9.20;99.90
47616;DHT22;69146;52.266;7.000;2023-05-16T02:27:11;9.20;99.90
47616;DHT22;69146;52.266;7.000;2023-05-16T02:29:56;9.10;99.90
47616;DHT22;69146;52.266;7.000;2023-05-16T02:32:42;9.00;99.90
47616;DHT22;69146;52.266;7.000;2023-05-16T02:35:28;9.00;99.90
47616;DHT22;69146;52.266;7.000;2023-05-16T02:38:12;9.00;99.90
47616;DHT22;69146;52.266;7.000;2023-05-16T02:41:00;8.90;99.90
47616;DHT22;69146;52.266;7.000;2023-05-16T02:43:45;8.90;99.90
47616;DHT22;69146;52.266;7.000;2023-05-16T02:46:30;8.90;99.90
47616;DHT22;69146;52.266;7.000;2023-05-16T02:49:16;8.90;99.90
47616;DHT22;69146;52.266;7.000;2023-05-16T02:52:01;8.90;99.90
47616;DHT22;69146;52.266;7.000;2023-05-16T02:54:45;8.90;99.90
47616;DHT22;69146;52.266;7.000;2023-05-16T02:57:29;8.80;99.90
47616;DHT22;69146;52.266;7.000;2023-05-16T03:00:15;8.80;99.90
47616;DHT22;69146;52.266;7.000;2023-05-16T03:03:00;8.70;99.90
47616;DHT22;69146;52.266;7.000;2023-05-16T03:05:46;8.70;99.90
47616;DHT22;69146;52.266;7.000;2023-05-16T03:08:32;8.70;99.90
47616;DHT22;69146;52.266;7.000;2023-05-16T03:11:17;8.70;99.90
47616;DHT22;69146;52.266;7.000;2023-05-16T03:14:05;8.70;99.90
47616;DHT22;69146;52.266;7.000;2023-05-16T03:16:49;8.70;99.90
47616;DHT22;69146;52.266;7.000;2023-05-16T03:19:35;8.60;99.90
47616;DHT22;69146;52.266;7.000;2023-05-16T03:22:20;8.50;99.90
47616;DHT22;69146;52.266;7.000;2023-05-16T03:25:05;8.50;99.90
47616;DHT22;69146;52.266;7.000;2023-05-16T03:27:51;8.50;99.90
47616;DHT22;69146;52.266;7.000;2023-05-16T03:30:36;8.40;99.90
47616;DHT22;69146;52.266;7.000;2023-05-16T03:33:20;8.40;99.90
47616;DHT22;69146;52.266;7.000;2023-05-16T03:36:05;8.40;99.90
47616;DHT22;69146;52.266;7.000;2023-05-16T03:38:51;8.40;99.90
47616;DHT22;69146;52.266;7.000;2023-05-16T03:41:36;8.40;99.90
47616;DHT22;69146;52.266;7.000;2023-05-16T03:44:20;8.30;99.90
47616;DHT22;69146;52.266;7.000;2023-05-16T03:47:05;8.40;99.90
47616;DHT22;69146;52.266;7.000;2023-05-16T03:49:49;8.30;99.90
47616;DHT22;69146;52.266;7.000;2023-05-16T03:52:34;8.30;99.90
47616;DHT22;69146;52.266;7.000;2023-05-16T03:55:20;8.30;99.90
47616;DHT22;69146;52.266;7.000;2023-05-16T03:58:05;8.30;99.90
47616;DHT22;69146;52.266;7.000;2023-05-16T04:00:49;8.30;99.90
47616;DHT22;69146;52.266;7.000;2023-05-16T04:03:37;8.30;99.90
47616;DHT22;69146;52.266;7.000;2023-05-16T04:06:21;8.20;99.90
47616;DHT22;69146;52.266;7.000;2023-05-16T04:09:06;8.20;99.90
47616;DHT22;69146;52.266;7.000;2023-05-16T04:11:52;8.10;99.90
47616;DHT22;69146;52.266;7.000;2023-05-16T04:14:39;8.10;99.90
47616;DHT22;69146;52.266;7.000;2023-05-16T04:17:23;8.10;99.90
47616;DHT22;69146;52.266;7.000;2023-05-16T04:20:08;8.10;99.90
47616;DHT22;69146;52.266;7.000;2023-05-16T04:22:53;8.20;99.90
47616;DHT22;69146;52.266;7.000;2023-05-16T04:25:37;8.20;99.90
47616;DHT22;69146;52.266;7.000;2023-05-16T04:28:23;8.20;99.90
47616;DHT22;69146;52.266;7.000;2023-05-16T04:31:08;8.30;99.90
47616;DHT22;69146;52.266;7.000;2023-05-16T04:33:53;8.30;99.90
47616;DHT22;69146;52.266;7.000;2023-05-16T04:36:39;8.40;99.90
47616;DHT22;69146;52.266;7.000;2023-05-16T04:39:24;8.40;99.90
47616;DHT22;69146;52.266;7.000;2023-05-16T04:42:08;8.40;99.90
47616;DHT22;69146;52.266;7.000;2023-05-16T04:44:57;8.40;99.90
47616;DHT22;69146;52.266;7.000;2023-05-16T04:47:41;8.40;99.90
47616;DHT22;69146;52.266;7.000;2023-05-16T04:50:25;8.40;99.90
47616;DHT22;69146;52.266;7.000;2023-05-16T04:53:10;8.40;99.90
47616;DHT22;69146;52.266;7.000;2023-05-16T04:55:54;8.50;99.90
47616;DHT22;69146;52.266;7.000;2023-05-16T04:58:39;8.50;99.90
47616;DHT22;69146;52.266;7.000;2023-05-16T05:01:26;8.50;99.90
47616;DHT22;69146;52.266;7.000;2023-05-16T05:04:13;8.50;99.90
47616;DHT22;69146;52.266;7.000;2023-05-16T05:06:58;8.60;99.90
47616;DHT22;69146;52.266;7.000;2023-05-16T05:09:42;8.70;99.90
47616;DHT22;69146;52.266;7.000;2023-05-16T05:12:27;8.70;99.90
47616;DHT22;69146;52.266;7.000;2023-05-16T05:15:12;8.70;99.90
47616;DHT22;69146;52.266;7.000;2023-05-16T05:17:57;8.70;99.90
47616;DHT22;69146;52.266;7.000;2023-05-16T05:20:42;8.80;99.90
47616;DHT22;69146;52.266;7.000;2023-05-16T05:23:27;8.90;99.90
47616;DHT22;69146;52.266;7.000;2023-05-16T05:26:11;8.90;99.90
47616;DHT22;69146;52.266;7.000;2023-05-16T05:28:55;8.90;99.90
47616;DHT22;69146;52.266;7.000;2023-05-16T05:31:40;8.90;99.90
47616;DHT22;69146;52.266;7.000;2023-05-16T05:34:26;9.00;99.90
47616;DHT22;69146;52.266;7.000;2023-05-16T05:37:10;9.10;99.90
47616;DHT22;69146;52.266;7.000;2023-05-16T05:39:54;9.20;99.90
47616;DHT22;69146;52.266;7.000;2023-05-16T05:42:39;9.20;99.90
47616;DHT22;69146;52.266;7.000;2023-05-16T05:45:24;9.20;99.90
47616;DHT22;69146;52.266;7.000;2023-05-16T05:48:09;9.30;99.90
47616;DHT22;69146;52.266;7.000;2023-05-16T05:50:55;9.30;99.90
47616;DHT22;69146;52.266;7.000;2023-05-16T05:53:40;9.30;99.90
47616;DHT22;69146;52.266;7.000;2023-05-16T05:56:25;9.40;99.90
47616;DHT22;69146;52.266;7.000;2023-05-16T05:59:09;9.50;99.90
47616;DHT22;69146;52.266;7.000;2023-05-16T06:01:54;9.50;99.90
47616;DHT22;69146;52.266;7.000;2023-05-16T06:04:39;9.60;99.90
47616;DHT22;69146;52.266;7.000;2023-05-16T06:07:27;9.70;99.90
47616;DHT22;69146;52.266;7.000;2023-05-16T06:10:11;9.70;99.90
47616;DHT22;69146;52.266;7.000;2023-05-16T06:12:56;9.80;99.90
47616;DHT22;69146;52.266;7.000;2023-05-16T06:15:40;9.80;99.90
47616;DHT22;69146;52.266;7.000;2023-05-16T06:18:25;9.90;99.90
47616;DHT22;69146;52.266;7.000;2023-05-16T06:21:09;10.00;99.90
47616;DHT22;69146;52.266;7.000;2023-05-16T06:23:55;10.10;99.90
47616;DHT22;69146;52.266;7.000;2023-05-16T06:26:40;10.20;99.90
47616;DHT22;69146;52.266;7.000;2023-05-16T06:29:24;10.30;99.90
47616;DHT22;69146;52.266;7.000;2023-05-16T06:32:08;10.30;99.90
47616;DHT22;69146;52.266;7.000;2023-05-16T06:34:53;10.40;99.90
47616;DHT22;69146;52.266;7.000;2023-05-16T06:37:37;10.50;99.90
47616;DHT22;69146;52.266;7.000;2023-05-16T06:40:23;10.60;99.90
47616;DHT22;69146;52.266;7.000;2023-05-16T06:43:08;10.80;99.90
47616;DHT22;69146;52.266;7.000;2023-05-16T06:45:52;10.80;99.90
47616;DHT22;69146;52.266;7.000;2023-05-16T06:48:37;11.00;99.90
47616;DHT22;69146;52.266;7.000;2023-05-16T06:51:21;11.00;99.90
47616;DHT22;69146;52.266;7.000;2023-05-16T06:54:06;11.20;99.90
47616;DHT22;69146;52.266;7.000;2023-05-16T06:56:52;11.30;99.90
47616;DHT22;69146;52.266;7.000;2023-05-16T06:59:37;11.60;99.90
47616;DHT22;69146;52.266;7.000;2023-05-16T07:02:21;11.70;99.90
47616;DHT22;69146;52.266;7.000;2023-05-16T07:05:06;11.80;99.90
47616;DHT22;69146;52.266;7.000;2023-05-16T07:07:51;11.90;99.90
47616;DHT22;69146;52.266;7.000;2023-05-16T07:10:35;11.80;99.90
47616;DHT22;69146;52.266;7.000;2023-05-16T07:13:21;11.80;99.90
47616;DHT22;69146;52.266;7.000;2023-05-16T07:16:06;11.90;99.90
47616;DHT22;69146;52.266;7.000;2023-05-16T07:18:51;12.00;98.90
47616;DHT22;69146;52.266;7.000;2023-05-16T07:21:36;11.80;99.30
47616;DHT22;69146;52.266;7.000;2023-05-16T07:24:23;11.80;99.20
47616;DHT22;69146;52.266;7.000;2023-05-16T07:27:08;11.70;99.00
47616;DHT22;69146;52.266;7.000;2023-05-16T07:29:54;11.70;98.60
47616;DHT22;69146;52.266;7.000;2023-05-16T07:32:39;11.60;98.80
47616;DHT22;69146;52.266;7.000;2023-05-16T07:35:23;11.70;98.50
47616;DHT22;69146;52.266;7.000;2023-05-16T07:38:10;11.70;98.60
47616;DHT22;69146;52.266;7.000;2023-05-16T07:40:54;11.80;99.00
47616;DHT22;69146;52.266;7.000;2023-05-16T07:43:39;12.10;99.10
47616;DHT22;69146;52.266;7.000;2023-05-16T07:46:25;12.40;98.70
47616;DHT22;69146;52.266;7.000;2023-05-16T07:49:09;12.70;97.70
47616;DHT22;69146;52.266;7.000;2023-05-16T07:51:54;12.70;97.30
47616;DHT22;69146;52.266;7.000;2023-05-16T07:54:39;12.80;97.20
47616;DHT22;69146;52.266;7.000;2023-05-16T07:57:24;13.00;96.40
47616;DHT22;69146;52.266;7.000;2023-05-16T08:00:09;13.40;95.70
47616;DHT22;69146;52.266;7.000;2023-05-16T08:02:55;13.70;94.90
47616;DHT22;69146;52.266;7.000;2023-05-16T08:05:40;13.70;94.10
47616;DHT22;69146;52.266;7.000;2023-05-16T08:08:24;13.60;94.40
47616;DHT22;69146;52.266;7.000;2023-05-16T08:11:09;13.50;94.30
47616;DHT22;69146;52.266;7.000;2023-05-16T08:13:54;13.30;94.10
47616;DHT22;69146;52.266;7.000;2023-05-16T08:16:38;13.50;94.40
47616;DHT22;69146;52.266;7.000;2023-05-16T08:19:24;13.40;93.80
47616;DHT22;69146;52.266;7.000;2023-05-16T08:22:09;13.60;93.50
47616;DHT22;69146;52.266;7.000;2023-05-16T08:24:53;13.50;93.50
47616;DHT22;69146;52.266;7.000;2023-05-16T08:27:41;13.70;93.30
47616;DHT22;69146;52.266;7.000;2023-05-16T08:30:26;14.00;93.40
47616;DHT22;69146;52.266;7.000;2023-05-16T08:33:10;14.30;92.60
47616;DHT22;69146;52.266;7.000;2023-05-16T08:35:57;14.70;92.70
47616;DHT22;69146;52.266;7.000;2023-05-16T08:38:41;14.90;92.20
47616;DHT22;69146;52.266;7.000;2023-05-16T08:41:26;14.70;92.20
47616;DHT22;69146;52.266;7.000;2023-05-16T08:44:10;14.40;92.30
47616;DHT22;69146;52.266;7.000;2023-05-16T08:46:56;14.10;92.60
47616;DHT22;69146;52.266;7.000;2023-05-16T08:49:42;14.10;92.50
47616;DHT22;69146;52.266;7.000;2023-05-16T08:52:30;14.20;92.90
47616;DHT22;69146;52.266;7.000;2023-05-16T08:55:16;14.50;92.10
47616;DHT22;69146;52.266;7.000;2023-05-16T08:58:02;14.80;91.50
47616;DHT22;69146;52.266;7.000;2023-05-16T09:00:47;14.90;91.30
47616;DHT22;69146;52.266;7.000;2023-05-16T09:03:32;15.00;91.10
47616;DHT22;69146;52.266;7.000;2023-05-16T09:06:17;15.10;90.40
47616;DHT22;69146;52.266;7.000;2023-05-16T09:09:03;15.00;90.40
47616;DHT22;69146;52.266;7.000;2023-05-16T09:11:51;15.10;90.40
47616;DHT22;69146;52.266;7.000;2023-05-16T09:14:35;15.30;89.40
47616;DHT22;69146;52.266;7.000;2023-05-16T09:17:20;15.60;90.10
47616;DHT22;69146;52.266;7.000;2023-05-16T09:20:08;15.90;89.60
47616;DHT22;69146;52.266;7.000;2023-05-16T09:22:53;15.80;89.00
47616;DHT22;69146;52.266;7.000;2023-05-16T09:25:39;15.90;87.80
47616;DHT22;69146;52.266;7.000;2023-05-16T09:28:24;15.90;86.60
47616;DHT22;69146;52.266;7.000;2023-05-16T09:31:19;16.00;87.50
47616;DHT22;69146;52.266;7.000;2023-05-16T09:34:06;16.20;86.60
47616;DHT22;69146;52.266;7.000;2023-05-16T09:36:53;15.80;89.50
47616;DHT22;69146;52.266;7.000;2023-05-16T09:39:38;15.30;89.50
47616;DHT22;69146;52.266;7.000;2023-05-16T09:42:24;15.20;89.70
47616;DHT22;69146;52.266;7.000;2023-05-16T09:45:10;15.30;88.00
47616;DHT22;69146;52.266;7.000;2023-05-16T09:47:57;15.40;87.10
47616;DHT22;69146;52.266;7.000;2023-05-16T09:50:45;15.60;83.50
47616;DHT22;69146;52.266;7.000;2023-05-16T09:53:31;15.90;83.80
47616;DHT22;69146;52.266;7.000;2023-05-16T09:56:16;16.00;84.10
47616;DHT22;69146;52.266;7.000;2023-05-16T09:59:03;16.10;83.60
47616;DHT22;69146;52.266;7.000;2023-05-16T10:01:53;16.10;82.30
47616;DHT22;69146;52.266;7.000;2023-05-16T10:04:38;16.10;83.60
47616;DHT22;69146;52.266;7.000;2023-05-16T10:07:22;16.40;83.30
47616;DHT22;69146;52.266;7.000;2023-05-16T10:10:08;16.60;84.20
47616;DHT22;69146;52.266;7.000;2023-05-16T10:12:52;16.90;82.00
47616;DHT22;69146;52.266;7.000;2023-05-16T10:15:43;17.30;80.90
47616;DHT22;69146;52.266;7.000;2023-05-16T10:18:29;17.40;80.10
47616;DHT22;69146;52.266;7.000;2023-05-16T10:21:14;17.30;80.90
47616;DHT22;69146;52.266;7.000;2023-05-16T10:24:01;16.90;82.60
47616;DHT22;69146;52.266;7.000;2023-05-16T10:26:47;16.40;86.30
47616;DHT22;69146;52.266;7.000;2023-05-16T10:29:31;15.70;92.00
47616;DHT22;69146;52.266;7.000;2023-05-16T10:32:17;15.10;93.20
47616;DHT22;69146;52.266;7.000;2023-05-16T10:35:02;14.70;94.10
47616;DHT22;69146;52.266;7.000;2023-05-16T10:37:47;14.70;92.60
47616;DHT22;69146;52.266;7.000;2023-05-16T10:40:32;14.90;91.80
47616;DHT22;69146;52.266;7.000;2023-05-16T10:43:23;15.10;91.80
47616;DHT22;69146;52.266;7.000;2023-05-16T10:46:09;15.10;90.70
47616;DHT22;69146;52.266;7.000;2023-05-16T10:48:55;15.00;92.60
47616;DHT22;69146;52.266;7.000;2023-05-16T10:51:39;14.90;91.70
47616;DHT22;69146;52.266;7.000;2023-05-16T10:54:24;14.90;91.10
47616;DHT22;69146;52.266;7.000;2023-05-16T10:57:17;15.00;91.50
47616;DHT22;69146;52.266;7.000;2023-05-16T11:00:04;15.50;90.40
47616;DHT22;69146;52.266;7.000;2023-05-16T11:02:50;16.00;89.80
47616;DHT22;69146;52.266;7.000;2023-05-16T11:05:36;16.50;86.20
47616;DHT22;69146;52.266;7.000;2023-05-16T11:08:20;16.80;85.80
47616;DHT22;69146;52.266;7.000;2023-05-16T11:14:07;17.30;82.60
47616;DHT22;69146;52.266;7.000;2023-05-16T11:16:53;17.30;80.60
47616;DHT22;69146;52.266;7.000;2023-05-16T11:19:39;17.70;79.70
47616;DHT22;69146;52.266;7.000;2023-05-16T11:22:25;17.50;78.50
47616;DHT22;69146;52.266;7.000;2023-05-16T11:25:10;17.30;78.60
47616;DHT22;69146;52.266;7.000;2023-05-16T11:27:54;17.00;79.30
47616;DHT22;69146;52.266;7.000;2023-05-16T11:30:41;16.80;80.30
47616;DHT22;69146;52.266;7.000;2023-05-16T11:33:25;16.60;80.30
47616;DHT22;69146;52.266;7.000;2023-05-16T11:36:13;16.50;80.80
47616;DHT22;69146;52.266;7.000;2023-05-16T11:39:05;16.40;81.30
47616;DHT22;69146;52.266;7.000;2023-05-16T11:41:53;16.50;81.50
47616;DHT22;69146;52.266;7.000;2023-05-16T11:44:38;16.90;81.10
47616;DHT22;69146;52.266;7.000;2023-05-16T11:47:22;16.90;78.40
47616;DHT22;69146;52.266;7.000;2023-05-16T11:50:10;16.90;78.10
47616;DHT22;69146;52.266;7.000;2023-05-16T11:52:55;16.80;75.80
47616;DHT22;69146;52.266;7.000;2023-05-16T11:55:41;16.90;75.40
47616;DHT22;69146;52.266;7.000;2023-05-16T11:58:26;16.80;76.60
47616;DHT22;69146;52.266;7.000;2023-05-16T12:01:10;16.90;76.40
47616;DHT22;69146;52.266;7.000;2023-05-16T12:03:56;17.20;76.40
47616;DHT22;69146;52.266;7.000;2023-05-16T12:06:41;17.80;76.80
47616;DHT22;69146;52.266;7.000;2023-05-16T12:09:28;18.00;76.00
47616;DHT22;69146;52.266;7.000;2023-05-16T12:12:14;17.80;76.50
47616;DHT22;69146;52.266;7.000;2023-05-16T12:14:59;17.20;83.50
47616;DHT22;69146;52.266;7.000;2023-05-16T12:17:44;16.70;84.60
47616;DHT22;69146;52.266;7.000;2023-05-16T12:20:29;16.40;87.50
47616;DHT22;69146;52.266;7.000;2023-05-16T12:23:13;16.20;85.70
47616;DHT22;69146;52.266;7.000;2023-05-16T12:25:58;16.30;85.20
47616;DHT22;69146;52.266;7.000;2023-05-16T12:28:49;16.80;83.60
47616;DHT22;69146;52.266;7.000;2023-05-16T12:31:36;17.10;81.00
47616;DHT22;69146;52.266;7.000;2023-05-16T12:34:21;17.50;79.10
47616;DHT22;69146;52.266;7.000;2023-05-16T12:37:06;17.70;78.70
47616;DHT22;69146;52.266;7.000;2023-05-16T12:39:50;17.90;78.00
47616;DHT22;69146;52.266;7.000;2023-05-16T12:42:37;18.20;77.40
47616;DHT22;69146;52.266;7.000;2023-05-16T12:45:25;18.50;77.20
47616;DHT22;69146;52.266;7.000;2023-05-16T12:48:11;18.60;77.10
47616;DHT22;69146;52.266;7.000;2023-05-16T12:50:56;18.70;76.00
47616;DHT22;69146;52.266;7.000;2023-05-16T12:53:40;18.90;75.00
47616;DHT22;69146;52.266;7.000;2023-05-16T12:56:26;18.70;75.50
47616;DHT22;69146;52.266;7.000;2023-05-16T12:59:14;18.40;75.70
47616;DHT22;69146;52.266;7.000;2023-05-16T13:02:00;18.00;74.50
47616;DHT22;69146;52.266;7.000;2023-05-16T13:04:45;17.50;76.40
47616;DHT22;69146;52.266;7.000;2023-05-16T13:07:30;17.10;77.60
47616;DHT22;69146;52.266;7.000;2023-05-16T13:10:17;16.60;78.70
47616;DHT22;69146;52.266;7.000;2023-05-16T13:13:01;16.00;79.80
47616;DHT22;69146;52.266;7.000;2023-05-16T13:15:48;16.00;80.90
47616;DHT22;69146;52.266;7.000;2023-05-16T13:18:34;16.00;81.00
47616;DHT22;69146;52.266;7.000;2023-05-16T13:21:20;16.30;80.90
47616;DHT22;69146;52.266;7.000;2023-05-16T13:24:05;16.50;81.80
47616;DHT22;69146;52.266;7.000;2023-05-16T13:26:53;16.70;82.40
47616;DHT22;69146;52.266;7.000;2023-05-16T13:29:38;16.90;81.70
47616;DHT22;69146;52.266;7.000;2023-05-16T13:32:22;16.90;81.90
47616;DHT22;69146;52.266;7.000;2023-05-16T13:35:09;16.70;83.20
47616;DHT22;69146;52.266;7.000;2023-05-16T13:37:53;16.60;88.80
47616;DHT22;69146;52.266;7.000;2023-05-16T13:40:38;15.50;94.30
47616;DHT22;69146;52.266;7.000;2023-05-16T13:43:23;14.40;98.70
47616;DHT22;69146;52.266;7.000;2023-05-16T13:46:07;13.70;99.90
47616;DHT22;69146;52.266;7.000;2023-05-16T13:48:52;13.30;99.90
47616;DHT22;69146;52.266;7.000;2023-05-16T13:51:37;13.10;99.90
47616;DHT22;69146;52.266;7.000;2023-05-16T13:54:22;13.00;99.90
47616;DHT22;69146;52.266;7.000;2023-05-16T13:57:06;12.80;99.90
47616;DHT22;69146;52.266;7.000;2023-05-16T13:59:53;12.60;99.90
47616;DHT22;69146;52.266;7.000;2023-05-16T14:02:38;12.40;99.90
47616;DHT22;69146;52.266;7.000;2023-05-16T14:05:22;12.40;99.90
47616;DHT22;69146;52.266;7.000;2023-05-16T14:08:09;12.60;99.90
47616;DHT22;69146;52.266;7.000;2023-05-16T14:10:56;12.70;99.90
47616;DHT22;69146;52.266;7.000;2023-05-16T14:13:41;12.80;99.90
47616;DHT22;69146;52.266;7.000;2023-05-16T14:16:25;12.90;99.90
47616;DHT22;69146;52.266;7.000;2023-05-16T14:19:10;13.10;99.90
47616;DHT22;69146;52.266;7.000;2023-05-16T14:21:55;13.30;99.90
47616;DHT22;69146;52.266;7.000;2023-05-16T14:24:41;13.30;99.90
47616;DHT22;69146;52.266;7.000;2023-05-16T14:27:26;13.30;99.90
47616;DHT22;69146;52.266;7.000;2023-05-16T14:30:10;13.30;99.90
47616;DHT22;69146;52.266;7.000;2023-05-16T14:32:58;13.40;99.90
47616;DHT22;69146;52.266;7.000;2023-05-16T14:35:45;13.40;99.90
47616;DHT22;69146;52.266;7.000;2023-05-16T14:38:32;13.40;99.90
47616;DHT22;69146;52.266;7.000;2023-05-16T14:41:18;13.40;99.90
47616;DHT22;69146;52.266;7.000;2023-05-16T14:44:03;13.30;99.90
47616;DHT22;69146;52.266;7.000;2023-05-16T14:46:47;13.30;99.90
47616;DHT22;69146;52.266;7.000;2023-05-16T14:49:32;13.30;99.90
47616;DHT22;69146;52.266;7.000;2023-05-16T14:52:16;13.30;99.90
47616;DHT22;69146;52.266;7.000;2023-05-16T14:55:00;13.50;99.90
47616;DHT22;69146;52.266;7.000;2023-05-16T14:57:46;13.60;99.90
47616;DHT22;69146;52.266;7.000;2023-05-16T15:00:31;14.00;99.90
47616;DHT22;69146;52.266;7.000;2023-05-16T15:03:15;14.20;99.90
47616;DHT22;69146;52.266;7.000;2023-05-16T15:06:00;14.40;99.90
47616;DHT22;69146;52.266;7.000;2023-05-16T15:08:45;14.40;99.90
47616;DHT22;69146;52.266;7.000;2023-05-16T15:11:30;14.40;99.90
47616;DHT22;69146;52.266;7.000;2023-05-16T15:14:16;14.40;99.60
47616;DHT22;69146;52.266;7.000;2023-05-16T15:17:01;14.20;99.10
47616;DHT22;69146;52.266;7.000;2023-05-16T15:19:46;14.10;99.50
47616;DHT22;69146;52.266;7.000;2023-05-16T15:22:32;14.10;99.90
47616;DHT22;69146;52.266;7.000;2023-05-16T15:25:16;14.00;99.70
47616;DHT22;69146;52.266;7.000;2023-05-16T15:28:01;14.00;99.20
47616;DHT22;69146;52.266;7.000;2023-05-16T15:30:47;14.00;99.90
47616;DHT22;69146;52.266;7.000;2023-05-16T15:33:31;13.90;99.00
47616;DHT22;69146;52.266;7.000;2023-05-16T15:36:16;13.90;99.80
47616;DHT22;69146;52.266;7.000;2023-05-16T15:39:00;13.90;99.40
47616;DHT22;69146;52.266;7.000;2023-05-16T15:41:45;13.90;98.30
47616;DHT22;69146;52.266;7.000;2023-05-16T15:44:30;13.80;98.00
47616;DHT22;69146;52.266;7.000;2023-05-16T15:47:15;13.70;97.90
47616;DHT22;69146;52.266;7.000;2023-05-16T15:50:00;13.80;98.50
47616;DHT22;69146;52.266;7.000;2023-05-16T15:52:45;13.90;98.20
47616;DHT22;69146;52.266;7.000;2023-05-16T15:55:29;13.90;98.20
47616;DHT22;69146;52.266;7.000;2023-05-16T15:58:14;14.00;97.30
47616;DHT22;69146;52.266;7.000;2023-05-16T16:00:59;14.00;96.90
47616;DHT22;69146;52.266;7.000;2023-05-16T16:03:45;14.00;97.00
47616;DHT22;69146;52.266;7.000;2023-05-16T16:06:29;14.10;97.00
47616;DHT22;69146;52.266;7.000;2023-05-16T16:09:14;14.10;96.60
47616;DHT22;69146;52.266;7.000;2023-05-16T16:11:59;14.10;96.60
47616;DHT22;69146;52.266;7.000;2023-05-16T16:14:43;14.00;95.90
47616;DHT22;69146;52.266;7.000;2023-05-16T16:17:28;13.90;95.60
47616;DHT22;69146;52.266;7.000;2023-05-16T16:20:14;13.80;94.90
47616;DHT22;69146;52.266;7.000;2023-05-16T16:22:59;13.70;95.20
47616;DHT22;69146;52.266;7.000;2023-05-16T16:25:44;13.70;94.80
47616;DHT22;69146;52.266;7.000;2023-05-16T16:28:30;13.70;94.60
47616;DHT22;69146;52.266;7.000;2023-05-16T16:31:15;13.60;94.20
47616;DHT22;69146;52.266;7.000;2023-05-16T16:33:59;13.50;94.50
47616;DHT22;69146;52.266;7.000;2023-05-16T16:36:45;13.60;94.60
47616;DHT22;69146;52.266;7.000;2023-05-16T16:39:29;13.50;94.70
47616;DHT22;69146;52.266;7.000;2023-05-16T16:42:14;13.50;94.40
47616;DHT22;69146;52.266;7.000;2023-05-16T16:44:58;13.50;94.70
47616;DHT22;69146;52.266;7.000;2023-05-16T16:47:42;13.50;94.60
47616;DHT22;69146;52.266;7.000;2023-05-16T16:50:27;13.60;94.80
47616;DHT22;69146;52.266;7.000;2023-05-16T16:53:13;13.70;95.00
47616;DHT22;69146;52.266;7.000;2023-05-16T16:55:57;13.80;94.80
47616;DHT22;69146;52.266;7.000;2023-05-16T16:58:42;13.80;94.70
47616;DHT22;69146;52.266;7.000;2023-05-16T17:01:26;13.70;94.90
47616;DHT22;69146;52.266;7.000;2023-05-16T17:04:11;13.60;95.30
47616;DHT22;69146;52.266;7.000;2023-05-16T17:06:55;13.60;95.70
47616;DHT22;69146;52.266;7.000;2023-05-16T17:09:42;13.60;95.60
47616;DHT22;69146;52.266;7.000;2023-05-16T17:12:27;13.60;95.60
47616;DHT22;69146;52.266;7.000;2023-05-16T17:15:14;13.50;95.80
47616;DHT22;69146;52.266;7.000;2023-05-16T17:18:01;13.50;95.60
47616;DHT22;69146;52.266;7.000;2023-05-16T17:20:45;13.50;95.90
47616;DHT22;69146;52.266;7.000;2023-05-16T17:23:30;13.50;95.60
47616;DHT22;69146;52.266;7.000;2023-05-16T17:26:17;13.50;95.90
47616;DHT22;69146;52.266;7.000;2023-05-16T17:29:02;13.50;96.50
47616;DHT22;69146;52.266;7.000;2023-05-16T17:31:47;13.50;95.80